Craig, CO (81625)

3:07 AM MDT on July 10, 2014 (GMT -0600)
Craig-Moffat (KCAG) Elev 6191 ft | 40.49 °N, 107.52 °W | Change Station

Current weather conditions updated 14 minutes ago

Clear
Clear
49 °F
Feels Like 49 °F
N
0
Wind Variable Wind from North

Today is forecast to be Cooler than yesterday. Thunderstorms likely early tonight.

Today
High -- | Low -- °F
--% Chance of Precip.
Yesterday
High -- | Low -- °F
Precip. -- in
5:48 AM 8:42 PM
Waxing Gibbous, 94% visible
Pressure 29.97 in
Visibility 10.0 miles
Clouds Clear
Dew Point 45 °F
Humidity 86%
Rainfall 0.00 in
Snow Depth Not available.
UV 0 out of 12
Pollen 3.40 out of 12
Air Quality Not available.
Flu Activity Local Activity
METAR KCAG 100853Z AUTO 00000KT 10SM CLR 09/07 A3018 RMK AO2 SLP147 T00940072 50006 TSNO

More Conditions Fewer Conditions

Pressure 29.97 in
Visibility 10.0 miles
Clouds Clear
Dew Point 45 °F
Humidity 86%
Rainfall 0.00 in
Snow Depth Not available.
UV 0 out of 12
Pollen 3.40 out of 12
Air Quality Not available.
Flu Activity Local Activity
METAR KCAG 100853Z AUTO 00000KT 10SM CLR 09/07 A3018 RMK AO2 SLP147 T00940072 50006 TSNO

More Conditions Fewer Conditions

10-Day Weather Forecast

Almanac

Astronomy

Jul. 10, 2014 Rise Set
Actual Time 5:48 AM MDT 8:42 PM MDT
Civil Twilight 5:16 AM MDT 9:14 PM MDT
Nautical Twilight 4:34 AM MDT 9:55 PM MDT
Astronomical Twilight 3:47 AM MDT 10:43 PM MDT
Moon 6:57 PM MDT 4:03 AM MDT
Length of Visible Light 15h 58m
Length of Day
14h 53m
Tomorrow will be 1m 10s shorter.
Waxing Gibbous, 94% of the Moon is Illuminated
Today
Waxing Gibbous
Jul 12
Full
Jul 18
Last Quarter
Jul 26
New
Aug 3
First Quarter

Today's Extremes

State Highs State Lows

Community

WunderPhotos

Upload Photos

1,732,085 photos uploaded!

Nearby

Snow Depth

Station Depth Elevation
Ripple Creek 0 in 10340 ft
Dry Lake 0 in 8400 ft
Trapper Lake 0 in 9700 ft
Bear RIver 0 in 9080 ft
Columbine 0 in 9160 ft

Earthquake Activity

City Distance Mag. Time & Date
No recent earthquake activity has been reported nearby.
Minimum magnitude displayed is 2.5.

Coastal Water Temperatures

Place Temperature
No Stations Reporting

Nearby Weather Stations

Station Location Temp. Dew Point Humidity Wind Precip. Elev Updated Type
MesoWest DORSEY , Hayden, CO 56 °F - - North  at  - 0.00 in / hr 6254 ft 2:00 AM MDT MADIS
MesoWest Lay Peak , Maybell, CO 64 °F - - SE  at  1 mph 0.00 in / hr 6430 ft 2:00 AM MDT MADIS
MesoWest DAWSON , Hayden, CO 55 °F - - North  at  - 0.00 in / hr 6411 ft 1:45 AM MDT MADIS
HADS YAMPA RIVER NEAR MAYBELL 3ESE CO, Maybell, CO 63 °F - - North  at  - 0.00 in / hr 5899 ft 2:15 AM MDT MADIS

Show More Stations Show Fewer Stations